SHAH weather

Nazareno II Heliport
Santiago, Santiago Metropolitan Region, Chile

Public forecast

Using degrees Celsius for public forecast. Weather courtesy of forecast.io.

METAR (pilot weather report)

Closest report is Eulogio Sánchez Airport, 3.6 nm (6.7 km) SSE. Retrieved 2019/07/20 15:00 UTC (28 minutes ago):

SCTB 201500Z 00000KT 6000 BKN150 13/01 Q1015

TAF (pilot weather forecast)

Closest forecast is Comodoro Arturo Merino Benítez International Airport, 10.6 nm (19.7 km) W. Retrieved 2019/07/20 12:00 UTC (3 hours ago):

TAF SCEL 201051Z 2012/2112 16004KT 5000 HZ NSC TX15/2019Z TN07/2110Z TEMPO 2012/2015 3000 HZ BECMG 2015/2017 19005KT 7000 FEW180 BKN220 BECMG 2021/2023 8000 SCT180 BKN200 BECMG 2103/2105 01004KT BKN150 BECMG 2106/2108 SCT070 BKN120 TEMPO 2108/2112 03004KT SCT050 BKN080